createdAt,value
2017-06-20T00:01:48.139Z,7.60
2017-06-20T00:04:18.498Z,7.33
2017-06-20T00:06:48.255Z,7.13
2017-06-20T00:09:17.960Z,7.60
2017-06-20T00:11:47.747Z,8.30
2017-06-20T00:14:18.445Z,7.30
2017-06-20T00:16:49.186Z,7.33
2017-06-20T00:19:18.918Z,6.60
2017-06-20T00:21:48.648Z,7.27
2017-06-20T00:24:18.407Z,8.20
2017-06-20T00:26:48.118Z,7.70
2017-06-20T00:29:17.822Z,7.20
2017-06-20T00:31:47.573Z,8.20
2017-06-20T00:34:17.292Z,7.37
2017-06-20T00:36:47.039Z,7.57
2017-06-20T00:39:16.750Z,8.40
2017-06-20T00:41:46.510Z,7.40
2017-06-20T00:44:16.221Z,7.80
2017-06-20T00:46:45.939Z,7.63
2017-06-20T00:49:15.734Z,7.30
2017-06-20T00:51:45.497Z,8.17
2017-06-20T00:54:15.242Z,8.17
2017-06-20T00:56:44.957Z,8.50
2017-06-20T00:59:14.745Z,8.67
2017-06-20T01:01:44.109Z,7.67
2017-06-20T01:04:13.831Z,8.00
2017-06-20T01:06:43.594Z,7.57
2017-06-20T01:09:13.294Z,7.60
2017-06-20T01:11:43.035Z,8.73
2017-06-20T01:14:12.742Z,8.60
2017-06-20T01:16:42.490Z,8.73
2017-06-20T01:19:11.871Z,7.73
2017-06-20T01:21:41.586Z,7.40
2017-06-20T01:24:11.318Z,7.80
2017-06-20T01:26:41.023Z,7.77
2017-06-20T01:29:10.754Z,7.90
2017-06-20T01:31:40.116Z,7.93
2017-06-20T01:34:09.868Z,7.90
2017-06-20T01:36:39.582Z,8.40
2017-06-20T01:39:09.307Z,8.03
2017-06-20T01:41:39.046Z,8.23
2017-06-20T01:44:08.753Z,7.97
2017-06-20T01:46:38.512Z,8.07
2017-06-20T01:49:08.268Z,8.30
2017-06-20T01:51:37.980Z,7.03
2017-06-20T01:54:07.707Z,7.93
2017-06-20T01:56:37.036Z,7.47
2017-06-20T01:59:06.768Z,8.00
2017-06-20T02:01:36.100Z,7.63
2017-06-20T02:04:05.874Z,7.97
2017-06-20T02:06:35.601Z,8.03
2017-06-20T02:09:04.585Z,8.30
2017-06-20T02:11:34.790Z,7.23
2017-06-20T02:14:04.586Z,7.53
2017-06-20T02:16:34.329Z,8.33
2017-06-20T02:19:04.083Z,8.13
2017-06-20T02:21:33.910Z,8.37
2017-06-20T02:24:03.630Z,7.40
2017-06-20T02:26:32.999Z,7.43
2017-06-20T02:29:02.764Z,8.50
2017-06-20T02:31:31.761Z,7.73
2017-06-20T02:34:01.499Z,7.90
2017-06-20T02:36:31.212Z,7.80
2017-06-20T02:39:04.842Z,8.10
2017-06-20T02:41:37.015Z,8.50
2017-06-20T02:44:06.767Z,7.63
2017-06-20T02:46:36.468Z,7.57
2017-06-20T02:49:06.177Z,7.70
2017-06-20T02:51:35.947Z,8.33
2017-06-20T02:54:05.656Z,8.00
2017-06-20T02:56:35.393Z,7.97
2017-06-20T02:59:05.106Z,7.90
2017-06-20T03:01:34.854Z,7.47
2017-06-20T03:04:04.565Z,9.60
2017-06-20T03:06:34.279Z,8.30
2017-06-20T03:09:03.456Z,8.90
2017-06-20T03:11:33.176Z,7.97
2017-06-20T03:14:02.934Z,9.30
2017-06-20T03:16:32.658Z,8.60
2017-06-20T03:19:02.432Z,8.30
2017-06-20T03:21:32.155Z,8.23
2017-06-20T03:24:01.861Z,8.00
2017-06-20T03:26:31.624Z,9.20
2017-06-20T03:29:01.352Z,8.53
2017-06-20T03:31:31.114Z,9.43
2017-06-20T03:34:00.906Z,8.00
2017-06-20T03:36:30.698Z,8.90
2017-06-20T03:39:00.420Z,8.43
2017-06-20T03:41:30.164Z,7.40
2017-06-20T03:43:59.532Z,8.00
2017-06-20T03:46:29.287Z,8.73
2017-06-20T03:48:59.022Z,9.00
2017-06-20T03:51:28.814Z,7.87
2017-06-20T03:53:58.558Z,8.07
2017-06-20T03:56:28.268Z,8.40
2017-06-20T03:58:58.088Z,8.60
2017-06-20T04:01:27.813Z,8.03
2017-06-20T04:03:57.987Z,8.80
2017-06-20T04:06:28.337Z,9.77
2017-06-20T04:08:58.152Z,9.20
2017-06-20T04:11:28.103Z,8.83
2017-06-20T04:13:57.520Z,9.23
2017-06-20T04:16:27.280Z,7.77
2017-06-20T04:18:56.985Z,8.37
2017-06-20T04:21:32.861Z,8.90
2017-06-20T04:24:04.636Z,8.50
2017-06-20T04:26:36.592Z,8.00
2017-06-20T04:29:06.323Z,7.57
2017-06-20T04:31:36.053Z,7.83
2017-06-20T04:34:05.802Z,7.67
2017-06-20T04:36:35.531Z,8.40
2017-06-20T04:39:04.564Z,8.80
2017-06-20T04:41:34.292Z,10.53
2017-06-20T04:44:04.059Z,8.53
2017-06-20T04:46:33.784Z,29.53
2017-06-20T04:49:03.531Z,9.73
2017-06-20T04:51:34.005Z,9.00
2017-06-20T04:54:03.718Z,9.60
2017-06-20T04:56:33.494Z,8.40
2017-06-20T04:59:03.208Z,10.20
2017-06-20T05:01:32.993Z,8.60
2017-06-20T05:04:02.710Z,10.27
2017-06-20T05:06:32.425Z,8.70
2017-06-20T05:09:02.163Z,9.53
2017-06-20T05:11:31.894Z,9.13
2017-06-20T05:14:01.619Z,9.03
2017-06-20T05:16:31.329Z,9.40
2017-06-20T05:19:01.073Z,8.77
2017-06-20T05:21:31.630Z,9.53
2017-06-20T05:24:01.391Z,7.90
2017-06-20T05:26:31.107Z,8.37
2017-06-20T05:29:00.814Z,9.57
2017-06-20T05:31:30.551Z,8.33
2017-06-20T05:34:00.279Z,9.13
2017-06-20T05:36:30.025Z,9.20
2017-06-20T05:38:59.755Z,9.67
2017-06-20T05:41:29.551Z,8.63
2017-06-20T05:43:59.266Z,8.20
2017-06-20T05:46:28.983Z,8.07
2017-06-20T05:48:58.742Z,8.63
2017-06-20T05:51:28.446Z,8.47
2017-06-20T05:53:58.221Z,9.67
2017-06-20T05:56:27.919Z,8.63
2017-06-20T05:58:57.677Z,8.40
2017-06-20T06:01:27.383Z,8.57
2017-06-20T06:03:57.099Z,8.63
2017-06-20T06:06:26.827Z,7.97
2017-06-20T06:08:56.532Z,8.47
2017-06-20T06:11:26.262Z,8.57
2017-06-20T06:13:55.969Z,8.43
2017-06-20T06:16:25.710Z,8.20
2017-06-20T06:18:55.414Z,8.63
2017-06-20T06:21:25.116Z,8.30
2017-06-20T06:23:54.864Z,8.10
2017-06-20T06:26:24.588Z,8.10
2017-06-20T06:28:54.316Z,8.17
2017-06-20T06:31:29.594Z,7.33
2017-06-20T06:34:01.491Z,8.47
2017-06-20T06:36:32.039Z,7.67
2017-06-20T06:39:01.609Z,7.10
2017-06-20T06:41:31.335Z,7.37
2017-06-20T06:46:37.752Z,7.40
2017-06-20T06:49:07.456Z,7.20
2017-06-20T06:51:37.196Z,6.50
2017-06-20T06:54:06.918Z,6.80
2017-06-20T06:56:36.667Z,7.20
2017-06-20T06:59:06.371Z,7.10
2017-06-20T07:01:36.077Z,6.63
2017-06-20T07:04:05.806Z,6.50
2017-06-20T07:06:35.516Z,6.80
2017-06-20T07:09:04.346Z,6.90
2017-06-20T07:11:34.070Z,6.40
2017-06-20T07:14:03.809Z,7.60
2017-06-20T07:16:33.530Z,6.50
2017-06-20T07:19:03.247Z,6.80
2017-06-20T07:21:32.996Z,6.33
2017-06-20T07:24:02.713Z,6.67
2017-06-20T07:26:32.450Z,6.20
2017-06-20T07:29:02.150Z,6.80
2017-06-20T07:31:31.907Z,6.47
2017-06-20T07:34:01.600Z,5.83
2017-06-20T07:36:31.324Z,6.63
2017-06-20T07:39:01.065Z,6.50
2017-06-20T07:41:30.786Z,6.20
2017-06-20T07:44:00.527Z,5.60
2017-06-20T07:46:30.238Z,5.60
2017-06-20T07:48:59.944Z,5.53
2017-06-20T07:51:29.714Z,5.97
2017-06-20T07:53:59.510Z,5.93
2017-06-20T07:56:29.658Z,5.73
2017-06-20T07:58:59.379Z,5.33
2017-06-20T08:01:29.170Z,6.23
2017-06-20T08:03:58.899Z,6.13
2017-06-20T08:06:28.607Z,6.57
2017-06-20T08:08:58.372Z,5.20
2017-06-20T08:11:28.087Z,5.77
2017-06-20T08:13:57.855Z,5.27
2017-06-20T08:16:27.587Z,5.60
2017-06-20T08:18:57.358Z,5.60
2017-06-20T08:21:32.432Z,6.23
2017-06-20T08:24:02.243Z,5.40
2017-06-20T08:26:31.598Z,5.13
2017-06-20T08:29:01.318Z,5.60
2017-06-20T08:31:31.051Z,5.50
2017-06-20T08:34:00.763Z,6.23
2017-06-20T08:36:33.257Z,6.40
2017-06-20T08:39:02.785Z,4.20
2017-06-20T08:41:32.547Z,5.00
2017-06-20T08:44:02.250Z,5.27
2017-06-20T08:46:32.008Z,4.90
2017-06-20T08:49:01.733Z,5.43
2017-06-20T08:51:31.522Z,5.37
2017-06-20T08:54:01.288Z,6.27
2017-06-20T08:56:31.002Z,5.03
2017-06-20T08:59:00.737Z,5.03
2017-06-20T09:01:30.446Z,5.30
2017-06-20T09:04:00.380Z,4.93
2017-06-20T09:06:30.170Z,5.10
2017-06-20T09:08:59.932Z,5.73
2017-06-20T09:11:29.678Z,5.20
2017-06-20T09:13:59.375Z,5.40
2017-06-20T09:16:29.110Z,5.40
2017-06-20T09:18:58.842Z,6.37
2017-06-20T09:21:28.562Z,6.03
2017-06-20T09:23:58.280Z,6.00
2017-06-20T09:26:28.037Z,6.10
2017-06-20T09:28:57.414Z,5.77
2017-06-20T09:31:27.141Z,6.20
2017-06-20T09:33:56.872Z,5.87
2017-06-20T09:36:26.603Z,5.80
2017-06-20T09:38:56.688Z,5.33
2017-06-20T09:41:26.402Z,5.20
2017-06-20T09:43:56.131Z,4.97
2017-06-20T09:46:25.841Z,4.60
2017-06-20T09:48:55.598Z,4.47
2017-06-20T09:51:25.300Z,4.23
2017-06-20T09:53:54.847Z,4.20
2017-06-20T09:56:24.599Z,5.20
2017-06-20T09:58:54.299Z,4.70
2017-06-20T10:01:24.045Z,5.30
2017-06-20T10:03:53.767Z,5.40
2017-06-20T10:06:23.498Z,4.70
2017-06-20T10:08:53.229Z,4.37
2017-06-20T10:11:23.004Z,4.50
2017-06-20T10:13:54.597Z,4.77
2017-06-20T10:16:25.218Z,5.00
2017-06-20T10:18:54.979Z,5.40
2017-06-20T10:21:24.696Z,4.73
2017-06-20T10:23:54.476Z,4.80
2017-06-20T10:26:24.187Z,5.40
2017-06-20T10:28:53.908Z,4.90
2017-06-20T10:31:23.684Z,5.07
2017-06-20T10:33:53.383Z,5.33
2017-06-20T10:36:23.119Z,5.23
2017-06-20T10:38:52.822Z,4.43
2017-06-20T10:41:22.590Z,5.10
2017-06-20T10:43:52.295Z,4.80
2017-06-20T10:46:21.983Z,5.37
2017-06-20T10:48:51.715Z,5.00
2017-06-20T10:51:21.479Z,5.37
2017-06-20T10:53:51.210Z,5.30
2017-06-20T10:56:21.009Z,5.43
2017-06-20T10:58:50.757Z,5.43
2017-06-20T11:01:20.554Z,4.90
2017-06-20T11:03:50.270Z,5.50
2017-06-20T11:06:20.008Z,5.40
2017-06-20T11:08:49.734Z,5.03
2017-06-20T11:11:19.501Z,4.90
2017-06-20T11:13:49.214Z,5.90
2017-06-20T11:16:18.970Z,5.90
2017-06-20T11:18:48.684Z,5.20
2017-06-20T11:21:18.382Z,5.23
2017-06-20T11:23:48.130Z,5.43
2017-06-20T11:26:17.836Z,4.90
2017-06-20T11:28:47.573Z,5.83
2017-06-20T11:31:17.287Z,5.43
2017-06-20T11:33:47.050Z,5.30
2017-06-20T11:36:16.745Z,5.60
2017-06-20T11:38:46.459Z,6.53
2017-06-20T11:41:16.181Z,5.87
2017-06-20T11:43:45.534Z,4.83
2017-06-20T11:46:15.257Z,6.10
2017-06-20T11:48:44.962Z,6.23
2017-06-20T11:51:14.727Z,6.03
2017-06-20T11:53:44.430Z,5.70
2017-06-20T11:56:14.162Z,5.73
2017-06-20T11:58:44.267Z,5.50
2017-06-20T12:01:13.978Z,5.80
2017-06-20T12:03:43.734Z,5.93
2017-06-20T12:06:13.446Z,6.43
2017-06-20T12:08:43.184Z,5.93
2017-06-20T12:11:12.914Z,5.37
2017-06-20T12:13:42.614Z,5.60
2017-06-20T12:16:12.353Z,5.80
2017-06-20T12:18:42.081Z,5.70
2017-06-20T12:21:11.808Z,6.27
2017-06-20T12:23:41.521Z,5.50
2017-06-20T12:26:11.293Z,5.50
2017-06-20T12:28:41.011Z,5.50
2017-06-20T12:31:10.704Z,5.70
2017-06-20T12:33:46.447Z,6.30
2017-06-20T12:36:19.356Z,5.63
2017-06-20T12:38:53.884Z,5.60
2017-06-20T12:41:24.494Z,6.10
2017-06-20T12:43:54.256Z,5.47
2017-06-20T12:46:23.959Z,5.40
2017-06-20T12:48:53.679Z,6.23
2017-06-20T12:51:23.427Z,4.97
2017-06-20T12:53:53.137Z,5.50
2017-06-20T12:56:22.867Z,5.83
2017-06-20T12:58:52.600Z,6.17
2017-06-20T13:01:22.414Z,6.97
2017-06-20T13:03:52.110Z,5.87
2017-06-20T13:06:25.418Z,6.00
2017-06-20T13:08:55.127Z,5.40
2017-06-20T13:11:24.846Z,6.67
2017-06-20T13:13:54.560Z,6.10
2017-06-20T13:16:24.254Z,5.90
2017-06-20T13:18:53.990Z,6.13
2017-06-20T13:21:23.701Z,6.60
2017-06-20T13:23:53.450Z,6.30
2017-06-20T13:26:23.172Z,6.73
2017-06-20T13:28:52.876Z,6.37
2017-06-20T13:31:22.631Z,6.90
2017-06-20T13:33:52.330Z,6.50
2017-06-20T13:36:22.061Z,6.33
2017-06-20T13:38:51.802Z,5.97
2017-06-20T13:41:21.608Z,6.50
2017-06-20T13:43:51.330Z,6.20
2017-06-20T13:46:21.126Z,6.20
2017-06-20T13:48:50.858Z,7.07
2017-06-20T13:51:20.649Z,7.20
2017-06-20T13:53:50.382Z,6.70
2017-06-20T13:56:20.102Z,7.10
2017-06-20T13:58:49.864Z,6.30
2017-06-20T14:01:19.635Z,6.40
2017-06-20T14:03:49.409Z,6.93
2017-06-20T14:06:19.118Z,6.27
2017-06-20T14:08:49.054Z,6.40
2017-06-20T14:11:18.813Z,6.60
2017-06-20T14:13:48.525Z,6.40
2017-06-20T14:16:18.320Z,6.50
2017-06-20T14:18:48.043Z,5.63
2017-06-20T14:21:17.646Z,6.20
2017-06-20T14:23:47.362Z,5.60
2017-06-20T14:26:17.084Z,5.70
2017-06-20T14:28:46.851Z,6.47
2017-06-20T14:31:16.590Z,6.30
2017-06-20T14:33:46.524Z,6.37
2017-06-20T14:36:15.926Z,5.57
2017-06-20T14:38:45.729Z,6.50
2017-06-20T14:41:15.459Z,7.20
2017-06-20T14:43:45.899Z,6.17
2017-06-20T14:46:15.693Z,6.20
2017-06-20T14:48:45.467Z,6.27
2017-06-20T14:51:15.242Z,6.43
2017-06-20T14:53:44.996Z,6.27
2017-06-20T14:56:14.776Z,6.30
2017-06-20T14:58:44.571Z,5.73
2017-06-20T15:01:14.182Z,6.57
2017-06-20T15:03:44.724Z,6.07
2017-06-20T15:06:16.555Z,6.00
2017-06-20T15:08:47.730Z,6.00
2017-06-20T15:11:24.647Z,6.00
2017-06-20T15:14:01.843Z,5.50
2017-06-20T15:16:34.671Z,5.80
2017-06-20T15:19:05.408Z,5.57
2017-06-20T15:21:36.679Z,5.90
2017-06-20T15:24:06.781Z,5.50
2017-06-20T15:26:37.569Z,5.77
2017-06-20T15:29:10.306Z,6.37
2017-06-20T15:31:41.388Z,6.00
2017-06-20T15:34:12.656Z,6.30
2017-06-20T15:36:43.629Z,5.57
2017-06-20T15:39:16.693Z,5.73
2017-06-20T15:41:47.607Z,5.83
2017-06-20T15:44:19.924Z,6.10
2017-06-20T15:46:49.687Z,5.97
2017-06-20T15:49:21.327Z,6.37
2017-06-20T15:51:53.680Z,6.60
2017-06-20T15:54:24.708Z,6.30
2017-06-20T15:56:55.469Z,6.07
2017-06-20T15:59:26.820Z,5.80
2017-06-20T16:01:57.676Z,6.13
2017-06-20T16:04:30.614Z,6.80
2017-06-20T16:07:03.396Z,5.73
2017-06-20T16:09:33.464Z,6.00
2017-06-20T16:12:08.905Z,6.80
2017-06-20T16:14:40.153Z,5.80
2017-06-20T16:17:12.179Z,5.90
2017-06-20T16:19:43.191Z,5.37
2017-06-20T16:22:15.435Z,6.00
2017-06-20T16:24:47.912Z,6.70
2017-06-20T16:27:19.133Z,5.80
2017-06-20T16:29:49.645Z,5.77
2017-06-20T16:32:21.715Z,6.37
2017-06-20T16:34:54.161Z,6.10
2017-06-20T16:37:30.078Z,6.10
2017-06-20T16:40:00.723Z,6.43
2017-06-20T16:42:33.582Z,6.47
2017-06-20T16:45:05.259Z,6.07
2017-06-20T16:47:39.135Z,5.60
2017-06-20T16:50:13.521Z,6.33
2017-06-20T16:52:44.772Z,5.93
2017-06-20T16:55:18.144Z,6.13
2017-06-20T16:57:52.067Z,6.00
2017-06-20T17:00:23.371Z,6.03
2017-06-20T17:02:54.200Z,5.03
2017-06-20T17:05:26.535Z,5.53
2017-06-20T17:07:57.100Z,5.63
2017-06-20T17:10:28.223Z,5.60
2017-06-20T17:12:59.231Z,6.60
2017-06-20T17:15:29.074Z,5.43
2017-06-20T17:18:00.171Z,5.30
2017-06-20T17:20:30.606Z,5.17
2017-06-20T17:23:00.389Z,5.33
2017-06-20T17:25:30.115Z,5.70
2017-06-20T17:28:00.410Z,5.40
2017-06-20T17:30:30.595Z,5.30
2017-06-20T17:33:00.311Z,5.40
2017-06-20T17:35:32.491Z,4.60
2017-06-20T17:38:04.099Z,5.40
2017-06-20T17:40:35.904Z,5.50
2017-06-20T17:43:08.396Z,6.13
2017-06-20T17:45:40.717Z,5.03
2017-06-20T17:48:12.518Z,4.93
2017-06-20T17:50:43.724Z,5.47
2017-06-20T17:53:16.580Z,4.73
2017-06-20T17:55:49.058Z,5.10
2017-06-20T17:58:21.394Z,4.90
2017-06-20T18:00:52.804Z,5.13
2017-06-20T18:03:24.077Z,4.80
2017-06-20T18:05:55.874Z,4.57
2017-06-20T18:08:29.357Z,4.27
2017-06-20T18:11:02.436Z,4.73
2017-06-20T18:13:33.107Z,4.10
2017-06-20T18:16:05.186Z,4.10
2017-06-20T18:18:34.891Z,4.80
2017-06-20T18:21:06.015Z,4.27
2017-06-20T18:23:38.263Z,4.30
2017-06-20T18:26:10.598Z,3.80
2017-06-20T18:28:41.166Z,4.53
2017-06-20T18:31:10.940Z,3.70
2017-06-20T18:33:41.741Z,3.90
2017-06-20T18:36:14.923Z,3.87
2017-06-20T18:38:46.665Z,4.27
2017-06-20T18:41:20.465Z,3.93
2017-06-20T18:43:53.756Z,4.10
2017-06-20T18:46:24.362Z,5.03
2017-06-20T18:48:56.019Z,3.97
2017-06-20T18:51:28.160Z,4.30
2017-06-20T18:54:00.801Z,3.50
2017-06-20T18:56:33.496Z,4.13
2017-06-20T18:59:05.545Z,3.73
2017-06-20T19:01:37.326Z,4.00
2017-06-20T19:04:09.821Z,4.00
2017-06-20T19:06:40.858Z,3.70
2017-06-20T19:09:12.100Z,3.67
2017-06-20T19:11:44.124Z,3.90
2017-06-20T19:14:14.448Z,3.60
2017-06-20T19:16:44.774Z,2.93
2017-06-20T19:19:15.934Z,3.43
2017-06-20T19:21:45.779Z,3.13
2017-06-20T19:24:17.853Z,3.67
2017-06-20T19:26:50.605Z,3.20
2017-06-20T19:29:22.152Z,3.17
2017-06-20T19:31:52.955Z,3.00
2017-06-20T19:34:22.750Z,3.13
2017-06-20T19:36:52.464Z,2.90
2017-06-20T19:39:23.957Z,3.00
2017-06-20T19:41:56.031Z,3.03
2017-06-20T19:44:29.327Z,2.97
2017-06-20T19:47:00.407Z,3.27
2017-06-20T19:49:31.662Z,3.13
2017-06-20T19:52:04.888Z,4.00
2017-06-20T19:54:37.062Z,2.90
2017-06-20T19:57:09.739Z,3.30
2017-06-20T19:59:41.855Z,3.50
2017-06-20T20:02:15.129Z,3.00
2017-06-20T20:04:45.961Z,3.67
2017-06-20T20:07:15.689Z,3.27
2017-06-20T20:09:45.413Z,3.20
2017-06-20T20:12:15.155Z,3.87
2017-06-20T20:14:44.879Z,3.70
2017-06-20T20:17:14.611Z,3.53
2017-06-20T20:19:44.327Z,3.40
2017-06-20T20:22:14.099Z,3.90
2017-06-20T20:24:43.815Z,3.37
2017-06-20T20:27:13.541Z,3.40
2017-06-20T20:29:43.263Z,3.53
2017-06-20T20:32:13.899Z,4.00
2017-06-20T20:34:45.173Z,2.93
2017-06-20T20:37:16.208Z,3.40
2017-06-20T20:39:47.637Z,3.20
2017-06-20T20:42:19.020Z,3.40
2017-06-20T20:44:49.361Z,3.70
2017-06-20T20:47:19.991Z,3.30
2017-06-20T20:49:50.866Z,3.27
2017-06-20T20:52:21.495Z,3.57
2017-06-20T20:54:51.746Z,2.87
2017-06-20T20:57:21.541Z,3.57
2017-06-20T20:59:51.972Z,3.80
2017-06-20T21:02:21.789Z,3.83
2017-06-20T21:04:51.530Z,3.93
2017-06-20T21:07:21.365Z,3.60
2017-06-20T21:09:51.067Z,3.13
2017-06-20T21:12:20.816Z,2.53
2017-06-20T21:14:50.518Z,3.37
2017-06-20T21:17:20.232Z,3.03
2017-06-20T21:19:49.962Z,3.67
2017-06-20T21:22:19.689Z,3.10
2017-06-20T21:24:49.423Z,3.03
2017-06-20T21:27:19.164Z,2.87
2017-06-20T21:29:48.918Z,3.80
2017-06-20T21:32:18.619Z,2.70
2017-06-20T21:34:48.326Z,2.83
2017-06-20T21:37:18.066Z,2.77
2017-06-20T21:39:47.782Z,3.07
2017-06-20T21:42:17.511Z,3.20
2017-06-20T21:44:47.210Z,2.40
2017-06-20T21:47:16.977Z,2.90
2017-06-20T21:49:46.682Z,2.63
2017-06-20T21:52:16.383Z,3.03
2017-06-20T21:54:46.128Z,3.33
2017-06-20T21:57:15.837Z,2.60
2017-06-20T21:59:45.596Z,2.90
2017-06-20T22:02:15.303Z,2.70
2017-06-20T22:04:45.121Z,3.20
2017-06-20T22:07:14.858Z,2.93
2017-06-20T22:09:44.594Z,3.07
2017-06-20T22:12:14.335Z,2.97
2017-06-20T22:14:44.041Z,2.93
2017-06-20T22:17:13.803Z,2.73
2017-06-20T22:19:43.538Z,2.80
2017-06-20T22:22:13.335Z,3.17
2017-06-20T22:24:43.043Z,3.00
2017-06-20T22:27:12.766Z,2.90
2017-06-20T22:29:42.495Z,3.70
2017-06-20T22:32:14.003Z,2.83
2017-06-20T22:34:43.743Z,3.00
2017-06-20T22:37:13.455Z,2.83
2017-06-20T22:39:43.216Z,3.53
2017-06-20T22:42:12.933Z,3.10
2017-06-20T22:44:42.657Z,3.37
2017-06-20T22:47:12.393Z,3.90
2017-06-20T22:49:42.101Z,2.93
2017-06-20T22:52:11.865Z,3.33
2017-06-20T22:54:42.227Z,3.00
2017-06-20T22:57:12.040Z,2.90
2017-06-20T22:59:41.742Z,3.43
2017-06-20T23:02:11.445Z,3.00
2017-06-20T23:04:41.183Z,3.00
2017-06-20T23:07:10.926Z,3.33
2017-06-20T23:09:40.677Z,2.60
2017-06-20T23:12:10.403Z,3.20
2017-06-20T23:14:40.181Z,2.93
2017-06-20T23:17:09.894Z,2.80
2017-06-20T23:19:39.612Z,2.30
2017-06-20T23:22:09.384Z,2.43
2017-06-20T23:24:39.091Z,2.60
2017-06-20T23:27:08.805Z,2.80
2017-06-20T23:29:39.414Z,2.60
2017-06-20T23:32:09.120Z,2.00
2017-06-20T23:34:43.105Z,2.20
2017-06-20T23:37:12.806Z,2.60
2017-06-20T23:39:42.534Z,2.23
2017-06-20T23:42:12.277Z,2.17
2017-06-20T23:44:41.985Z,2.30
2017-06-20T23:47:11.742Z,2.17
2017-06-20T23:49:41.452Z,2.20
2017-06-20T23:52:12.098Z,2.27
2017-06-20T23:54:41.816Z,2.33
2017-06-20T23:57:11.527Z,2.50
2017-06-20T23:59:41.267Z,2.70
